Time;durP1;ratioP1;P1;durP2;ratioP2;P2;SDS_P1;SDS_P2;PMS_P1;PMS_P2;Temp;Humidity;BMP_temperature;BMP_pressure;BME280_temperature;BME280_humidity;BME280_pressure;Samples;Min_cycle;Max_cycle;Signal;HPM_P1;HPM_P2
2022/09/29 00:00:30;;;;;;;3.20;1.55;;;;;;;5.54;100.00;94362.13;4986236;28;24448;-73
2022/09/29 00:02:56;;;;;;;14.82;1.90;;;;;;;5.43;100.00;94362.00;4983662;28;24507;-73
2022/09/29 00:05:23;;;;;;;1.85;1.63;;;;;;;5.45;100.00;94356.75;4973950;28;24429;-73
2022/09/29 00:07:50;;;;;;;1.63;1.52;;;;;;;5.52;100.00;94363.97;4973683;28;24784;-73
2022/09/29 00:10:18;;;;;;;4.38;1.55;;;;;;;5.62;100.00;94365.94;4968115;28;24433;-73
2022/09/29 00:12:44;;;;;;;2.55;1.58;;;;;;;5.64;100.00;94361.53;4976553;28;24438;-74
2022/09/29 00:15:12;;;;;;;2.00;1.60;;;;;;;5.68;100.00;94366.38;4975860;28;24442;-73
2022/09/29 00:17:38;;;;;;;2.38;1.33;;;;;;;5.69;100.00;94364.63;4988321;28;24475;-74
2022/09/29 00:20:06;;;;;;;1.85;1.40;;;;;;;5.68;100.00;94361.22;4970739;28;25081;-73
2022/09/29 00:22:32;;;;;;;2.78;1.70;;;;;;;5.70;100.00;94353.41;4981611;28;24440;-73
2022/09/29 00:24:59;;;;;;;3.80;1.80;;;;;;;5.71;100.00;94353.31;4973804;28;24433;-73
2022/09/29 00:27:27;;;;;;;2.55;1.55;;;;;;;5.77;100.00;94357.22;4979238;28;24433;-73
2022/09/29 00:29:53;;;;;;;2.28;1.75;;;;;;;5.72;100.00;94349.00;4990199;28;24428;-73
2022/09/29 00:32:20;;;;;;;2.83;1.55;;;;;;;5.74;100.00;94357.41;4975835;28;24436;-73
2022/09/29 00:34:46;;;;;;;2.08;1.50;;;;;;;5.77;100.00;94355.47;4969681;28;24434;-73
2022/09/29 00:37:13;;;;;;;1.38;1.27;;;;;;;5.83;100.00;94356.81;4978475;28;24438;-73
2022/09/29 00:39:40;;;;;;;2.63;1.58;;;;;;;5.88;100.00;94362.47;4961577;28;24440;-73
2022/09/29 00:42:06;;;;;;;4.65;1.77;;;;;;;5.80;100.00;94359.59;4968222;28;25111;-73
2022/09/29 00:44:59;;;;;;;1.80;1.40;;;;;;;5.87;100.00;94347.97;4980605;28;24480;-73
2022/09/29 00:47:26;;;;;;;1.90;1.70;;;;;;;5.86;100.00;94355.78;4974983;28;24426;-73
2022/09/29 00:49:59;;;;;;;2.20;1.73;;;;;;;5.70;100.00;94348.28;4970036;28;24437;-73
2022/09/29 00:52:31;;;;;;;2.55;1.45;;;;;;;5.58;100.00;94357.59;4978378;28;24452;-73
2022/09/29 00:55:01;;;;;;;1.90;1.60;;;;;;;5.69;100.00;94351.78;4973729;28;24440;-73
2022/09/29 00:57:31;;;;;;;3.17;1.52;;;;;;;5.77;100.00;94349.50;4988422;28;25025;-73
2022/09/29 01:00:03;;;;;;;1.73;1.33;;;;;;;5.84;100.00;94348.19;4970810;28;25032;-73
2022/09/29 01:02:32;;;;;;;1.77;1.60;;;;;;;5.82;100.00;94344.88;4977658;28;24430;-73
2022/09/29 01:05:00;;;;;;;3.13;1.40;;;;;;;5.89;100.00;94346.09;4970435;28;24444;-73
2022/09/29 01:07:27;;;;;;;1.50;1.38;;;;;;;5.94;100.00;94346.66;4962701;28;24442;-73
2022/09/29 01:09:56;;;;;;;1.80;1.40;;;;;;;5.94;100.00;94333.81;4983439;28;24441;-73
2022/09/29 01:12:23;;;;;;;1.35;1.20;;;;;;;5.98;100.00;94334.44;4966203;28;24434;-73
2022/09/29 01:14:52;;;;;;;3.10;1.30;;;;;;;6.00;100.00;94330.81;4989843;28;24444;-73
2022/09/29 01:17:21;;;;;;;2.03;1.40;;;;;;;5.96;100.00;94329.38;4975186;28;24449;-73
2022/09/29 01:19:58;;;;;;;1.58;1.40;;;;;;;5.96;100.00;94333.72;4976602;28;21192;-73
2022/09/29 01:22:57;;;;;;;3.00;1.63;;;;;;;5.97;100.00;94330.19;4963957;28;24426;-73
2022/09/29 01:25:48;;;;;;;1.75;1.40;;;;;;;6.05;100.00;94335.66;4978214;28;20773;-74
2022/09/29 01:28:46;;;;;;;1.77;1.33;;;;;;;6.09;100.00;94331.16;4974072;28;24436;-74
2022/09/29 01:31:24;;;;;;;1.83;1.50;;;;;;;6.02;100.00;94333.31;4966325;28;24425;-73
2022/09/29 01:34:00;;;;;;;2.00;1.60;;;;;;;5.95;100.00;94343.16;4972942;28;24426;-73
2022/09/29 01:36:35;;;;;;;1.65;1.30;;;;;;;5.92;100.00;94338.22;4969803;28;20809;-73
2022/09/29 01:39:17;;;;;;;2.10;1.45;;;;;;;5.88;100.00;94338.50;4972976;28;24483;-73
2022/09/29 01:41:49;;;;;;;2.30;1.30;;;;;;;5.93;100.00;94337.31;4962626;28;24441;-73
2022/09/29 01:44:23;;;;;;;1.87;1.33;;;;;;;5.98;100.00;94340.41;4972863;28;24528;-73
2022/09/29 01:46:55;;;;;;;2.33;1.30;;;;;;;5.94;100.00;94336.41;4979219;28;24434;-73
2022/09/29 01:49:25;;;;;;;2.08;1.35;;;;;;;5.90;100.00;94340.06;4965969;28;24449;-73
2022/09/29 01:51:55;;;;;;;2.13;1.43;;;;;;;5.95;100.00;94340.59;4970346;28;24434;-73
2022/09/29 01:54:27;;;;;;;1.75;1.50;;;;;;;6.03;100.00;94345.22;4977263;28;24425;-73
2022/09/29 01:57:00;;;;;;;1.30;1.20;;;;;;;6.06;100.00;94345.84;4968517;28;24437;-73
2022/09/29 01:59:33;;;;;;;2.60;1.60;;;;;;;6.09;100.00;94346.56;4980195;28;24511;-73
2022/09/29 02:02:07;;;;;;;1.67;1.30;;;;;;;6.07;100.00;94347.47;4992454;28;24965;-73
2022/09/29 02:04:38;;;;;;;2.15;1.20;;;;;;;6.10;100.00;94349.03;4979092;28;24430;-73
2022/09/29 02:07:16;;;;;;;2.85;1.48;;;;;;;6.13;100.00;94346.25;4966662;28;24441;-73
2022/09/29 02:09:48;;;;;;;1.70;1.10;;;;;;;6.18;100.00;94343.34;4980265;28;24452;-73
2022/09/29 02:12:22;;;;;;;4.33;1.57;;;;;;;6.20;100.00;94350.03;4973897;28;25006;-73
2022/09/29 02:14:51;;;;;;;2.60;1.40;;;;;;;6.21;100.00;94343.97;4966268;28;24432;-73
2022/09/29 02:17:20;;;;;;;2.57;1.60;;;;;;;6.18;100.00;94348.50;4973469;28;24460;-73
2022/09/29 02:19:50;;;;;;;2.27;1.40;;;;;;;6.22;100.00;94344.78;4973727;28;24461;-73
2022/09/29 02:22:17;;;;;;;2.27;1.67;;;;;;;6.22;100.00;94343.03;4985033;28;24437;-73
2022/09/29 02:24:44;;;;;;;2.75;1.50;;;;;;;6.22;100.00;94339.66;4978566;28;24436;-73
2022/09/29 02:27:12;;;;;;;2.00;1.33;;;;;;;6.09;100.00;94337.09;4977010;28;24975;-73
2022/09/29 02:29:39;;;;;;;2.00;1.70;;;;;;;6.21;100.00;94340.56;4991461;28;24524;-73
2022/09/29 02:32:08;;;;;;;1.73;1.40;;;;;;;6.23;100.00;94337.00;4966044;28;24473;-73
2022/09/29 02:34:41;;;;;;;6.45;1.60;;;;;;;6.24;100.00;94340.38;4980753;28;25006;-73
2022/09/29 02:37:20;;;;;;;1.63;1.40;;;;;;;6.28;100.00;94339.22;4981565;28;20855;-73
2022/09/29 02:39:58;;;;;;;2.22;1.48;;;;;;;6.32;100.00;94334.72;4973213;28;20796;-73
2022/09/29 02:42:30;;;;;;;2.03;1.60;;;;;;;6.29;100.00;94330.59;4981167;28;21251;-74
2022/09/29 02:45:18;;;;;;;2.75;1.65;;;;;;;6.22;100.00;94334.50;4968311;28;20681;-73
2022/09/29 02:47:59;;;;;;;2.55;1.55;;;;;;;6.22;100.00;94335.31;4970496;28;20810;-73
2022/09/29 02:50:50;;;;;;;2.13;1.75;;;;;;;6.26;100.00;94328.22;4987726;28;20786;-73
2022/09/29 02:53:26;;;;;;;2.92;1.60;;;;;;;6.57;100.00;94328.69;4974144;28;20764;-73
2022/09/29 02:55:59;;;;;;;2.78;1.73;;;;;;;6.76;100.00;94323.88;4965047;28;24766;-73
2022/09/29 02:58:31;;;;;;;2.20;1.50;;;;;;;6.69;100.00;94331.22;4978015;28;24507;-73
2022/09/29 03:00:58;;;;;;;2.80;1.50;;;;;;;6.59;100.00;94322.47;4970297;28;24452;-73
2022/09/29 03:03:24;;;;;;;2.15;1.80;;;;;;;6.37;100.00;94328.31;4989654;28;24453;-73
2022/09/29 03:05:52;;;;;;;6.22;2.00;;;;;;;6.54;100.00;94314.28;4986622;28;24433;-73
2022/09/29 03:08:19;;;;;;;2.65;2.00;;;;;;;6.69;100.00;94317.53;4989520;28;24456;-72
2022/09/29 03:10:45;;;;;;;3.92;2.10;;;;;;;6.44;100.00;94314.09;4969385;28;25003;-73
2022/09/29 03:13:12;;;;;;;2.95;2.28;;;;;;;6.45;100.00;94313.19;4968356;28;24433;-75
2022/09/29 03:15:38;;;;;;;2.45;2.00;;;;;;;6.18;100.00;94313.31;4963032;28;24440;-73
2022/09/29 03:18:06;;;;;;;3.25;1.90;;;;;;;5.95;100.00;94308.94;4967934;28;24440;-73
2022/09/29 03:20:32;;;;;;;3.97;2.13;;;;;;;5.85;100.00;94305.31;4968790;28;24452;-73
2022/09/29 03:23:00;;;;;;;2.05;1.83;;;;;;;5.81;100.00;94304.69;4979551;28;24433;-73
2022/09/29 03:25:27;;;;;;;3.50;2.22;;;;;;;5.82;100.00;94308.91;4967878;28;24832;-73
2022/09/29 03:27:54;;;;;;;5.13;2.30;;;;;;;5.58;100.00;94312.19;4977312;28;24491;-71
2022/09/29 03:30:22;;;;;;;4.65;2.30;;;;;;;5.41;100.00;94317.63;4969176;28;24442;-71
2022/09/29 03:32:48;;;;;;;3.15;2.10;;;;;;;5.22;100.00;94304.34;4978621;28;24433;-71
2022/09/29 03:35:15;;;;;;;2.50;2.10;;;;;;;5.30;100.00;94307.22;4973999;28;24929;-71
2022/09/29 03:37:42;;;;;;;11.80;1.90;;;;;;;5.17;100.00;94302.09;4984904;28;24436;-71
2022/09/29 03:40:11;;;;;;;2.50;2.13;;;;;;;5.18;100.00;94305.47;4971377;28;24547;-71
2022/09/29 03:42:37;;;;;;;4.63;2.00;;;;;;;5.37;100.00;94307.66;4978188;28;24440;-71
2022/09/29 03:45:05;;;;;;;4.55;2.00;;;;;;;5.45;100.00;94306.25;4974672;28;24789;-71
2022/09/29 03:47:31;;;;;;;3.08;1.70;;;;;;;5.51;100.00;94294.72;4977827;28;25041;-71
2022/09/29 03:49:58;;;;;;;2.90;1.70;;;;;;;5.76;100.00;94294.75;4976396;28;24433;-72
2022/09/29 03:52:24;;;;;;;2.78;1.80;;;;;;;5.75;100.00;94297.44;4973824;28;24536;-72
2022/09/29 03:54:51;;;;;;;3.05;1.92;;;;;;;5.69;100.00;94296.06;4968160;28;24452;-71
2022/09/29 03:57:19;;;;;;;1.90;1.60;;;;;;;5.61;100.00;94300.91;4973690;28;25001;-71
2022/09/29 03:59:45;;;;;;;2.10;1.60;;;;;;;5.58;100.00;94303.69;4968329;28;24458;-72
2022/09/29 04:02:12;;;;;;;2.70;1.50;;;;;;;5.59;100.00;94308.69;4974720;28;24430;-72
2022/09/29 04:04:38;;;;;;;3.53;1.88;;;;;;;5.56;100.00;94308.94;4969103;28;24433;-71
2022/09/29 04:07:05;;;;;;;3.35;1.95;;;;;;;5.32;100.00;94311.34;4975102;28;24441;-72
2022/09/29 04:09:31;;;;;;;2.53;2.03;;;;;;;5.29;100.00;94315.88;4969639;28;24449;-71
2022/09/29 04:11:58;;;;;;;5.68;2.30;;;;;;;5.19;100.00;94310.53;4976455;28;25013;-71
2022/09/29 04:14:25;;;;;;;5.28;2.58;;;;;;;5.19;100.00;94309.69;4982071;28;24437;-71
2022/09/29 04:16:52;;;;;;;3.00;2.30;;;;;;;5.19;100.00;94315.66;4976132;28;24437;-71
2022/09/29 04:19:18;;;;;;;10.38;2.10;;;;;;;5.04;100.00;94311.50;4970976;28;24820;-72
2022/09/29 04:21:45;;;;;;;15.23;2.33;;;;;;;5.01;100.00;94317.66;4976639;28;24515;-71
2022/09/29 04:24:12;;;;;;;15.18;2.25;;;;;;;5.03;100.00;94315.81;4966647;28;24444;-71
2022/09/29 04:26:39;;;;;;;18.90;1.92;;;;;;;4.95;100.00;94312.91;4975997;28;24425;-72
2022/09/29 04:29:06;;;;;;;3.72;1.40;;;;;;;5.02;100.00;94306.47;4971847;28;24507;-71
2022/09/29 04:31:34;;;;;;;5.88;1.70;;;;;;;5.14;100.00;94309.16;4979529;28;24803;-71
2022/09/29 04:34:00;;;;;;;1.73;1.48;;;;;;;5.24;100.00;94315.34;4989661;28;24792;-71
2022/09/29 04:36:27;;;;;;;3.38;2.05;;;;;;;5.31;100.00;94314.84;4989057;28;24429;-71
2022/09/29 04:38:53;;;;;;;3.40;3.10;;;;;;;5.38;100.00;94317.00;4978894;28;24461;-71
2022/09/29 04:41:20;;;;;;;4.03;2.80;;;;;;;5.42;100.00;94316.72;4973512;28;25064;-71
2022/09/29 04:43:47;;;;;;;8.02;1.70;;;;;;;5.49;100.00;94312.81;4979629;28;24511;-71
2022/09/29 04:46:14;;;;;;;10.82;2.47;;;;;;;5.53;100.00;94314.25;4975397;28;24442;-71
2022/09/29 04:48:42;;;;;;;10.07;1.63;;;;;;;5.55;100.00;94316.72;4981350;28;24436;-71
2022/09/29 04:51:09;;;;;;;2.50;1.63;;;;;;;5.51;100.00;94317.84;4973695;28;24429;-72
2022/09/29 04:53:36;;;;;;;3.40;2.13;;;;;;;5.36;100.00;94324.00;4981454;28;24438;-72
2022/09/29 04:56:07;;;;;;;8.50;2.30;;;;;;;5.19;100.00;94317.38;4973436;28;24440;-72
2022/09/29 04:58:33;;;;;;;5.90;2.20;;;;;;;4.98;100.00;94322.16;4968914;28;24991;-71
2022/09/29 05:01:08;;;;;;;3.10;1.92;;;;;;;5.09;100.00;94324.88;4974296;28;24452;-71
2022/09/29 05:03:34;;;;;;;3.55;2.30;;;;;;;5.14;100.00;94327.94;4968815;28;24436;-71
2022/09/29 05:06:02;;;;;;;2.75;2.30;;;;;;;5.14;100.00;94324.56;4977677;28;24434;-71
2022/09/29 05:08:28;;;;;;;2.75;2.55;;;;;;;5.13;100.00;94316.03;4968135;28;24437;-72
2022/09/29 05:10:55;;;;;;;2.80;2.50;;;;;;;5.15;100.00;94321.88;4974436;28;24433;-71
2022/09/29 05:13:21;;;;;;;5.70;2.65;;;;;;;5.14;100.00;94316.88;4981261;28;24990;-71
2022/09/29 05:15:48;;;;;;;7.03;2.42;;;;;;;5.16;100.00;94333.00;4974735;28;24437;-71
2022/09/29 05:18:15;;;;;;;3.03;2.10;;;;;;;5.19;100.00;94323.34;4982317;28;24433;-71
2022/09/29 05:20:41;;;;;;;4.90;1.98;;;;;;;5.25;100.00;94340.91;4975329;28;24457;-71
2022/09/29 05:23:09;;;;;;;2.83;1.83;;;;;;;5.30;100.00;94338.88;4983004;28;24441;-72
2022/09/29 05:25:36;;;;;;;19.38;2.03;;;;;;;5.31;100.00;94339.69;4975168;28;24836;-72
2022/09/29 05:28:03;;;;;;;15.15;1.80;;;;;;;5.29;100.00;94338.97;4982654;28;24804;-72
2022/09/29 05:30:29;;;;;;;4.70;1.50;;;;;;;5.32;100.00;94342.16;4975370;28;24979;-72
2022/09/29 05:32:56;;;;;;;8.57;1.80;;;;;;;5.31;100.00;94335.38;4982478;28;25007;-72
2022/09/29 05:35:22;;;;;;;24.30;2.30;;;;;;;5.22;100.00;94338.53;4975922;28;24736;-72
2022/09/29 05:37:50;;;;;;;18.30;1.98;;;;;;;4.99;100.00;94337.44;4973460;28;24496;-68
2022/09/29 05:40:19;;;;;;;3.65;1.67;;;;;;;5.00;100.00;94343.41;4976150;28;24463;-72
2022/09/29 05:42:46;;;;;;;6.13;1.42;;;;;;;4.99;100.00;94342.59;4967111;28;24438;-72
2022/09/29 05:45:12;;;;;;;8.20;1.70;;;;;;;4.96;100.00;94347.91;4982290;28;24523;-71
2022/09/29 05:47:42;;;;;;;5.37;1.50;;;;;;;4.94;100.00;94341.25;4972660;28;24434;-71
2022/09/29 05:50:09;;;;;;;4.88;1.65;;;;;;;4.95;100.00;94337.75;4979693;28;25005;-71
2022/09/29 05:52:35;;;;;;;9.93;1.33;;;;;;;5.08;100.00;94339.44;4973773;28;24993;-71
2022/09/29 05:55:02;;;;;;;2.65;1.15;;;;;;;5.06;100.00;94348.16;4980283;28;24440;-71
2022/09/29 05:57:30;;;;;;;7.18;1.52;;;;;;;4.91;100.00;94347.38;4973009;28;24426;-71
2022/09/29 05:59:56;;;;;;;4.28;1.73;;;;;;;5.02;100.00;94357.78;4980561;28;24484;-71
2022/09/29 06:02:23;;;;;;;3.17;1.35;;;;;;;5.04;100.00;94362.81;4974155;28;24425;-71
2022/09/29 06:04:50;;;;;;;2.47;1.70;;;;;;;5.08;100.00;94357.41;4979488;28;24990;-71
2022/09/29 06:07:16;;;;;;;24.23;2.40;;;;;;;5.02;100.00;94362.91;4974198;28;25054;-71
2022/09/29 06:09:43;;;;;;;5.07;1.80;;;;;;;5.00;100.00;94363.94;4978318;28;24441;-71
2022/09/29 06:12:10;;;;;;;9.55;1.85;;;;;;;5.06;100.00;94368.69;4971659;28;24444;-74
2022/09/29 06:14:37;;;;;;;8.18;1.73;;;;;;;5.02;100.00;94368.06;4966018;28;25020;-71
2022/09/29 06:17:04;;;;;;;6.97;2.08;;;;;;;5.05;100.00;94380.69;4979363;28;24442;-72
2022/09/29 06:19:30;;;;;;;15.43;2.78;;;;;;;5.02;100.00;94375.75;4960240;28;25003;-72
2022/09/29 06:21:57;;;;;;;4.88;2.28;;;;;;;5.05;100.00;94370.44;4977814;28;24433;-71
2022/09/29 06:24:23;;;;;;;5.47;1.92;;;;;;;5.04;100.00;94376.50;4973948;28;24441;-71
2022/09/29 06:26:50;;;;;;;4.72;1.80;;;;;;;5.05;100.00;94374.75;4974009;28;24430;-72
2022/09/29 06:29:16;;;;;;;2.95;1.73;;;;;;;5.17;100.00;94371.38;4973553;28;24456;-72
2022/09/29 06:31:44;;;;;;;3.65;1.77;;;;;;;5.12;100.00;94376.00;4980882;28;24445;-72
2022/09/29 06:34:11;;;;;;;1.90;1.40;;;;;;;5.24;100.00;94371.81;4983680;28;24448;-72
2022/09/29 06:39:25;;;;;;;4.10;1.70;;;;;;;5.40;100.00;94369.09;4969273;28;24620;-72
2022/09/29 06:41:53;;;;;;;2.30;1.60;;;;;;;5.50;100.00;94380.41;4973386;28;24440;-73
2022/09/29 06:44:20;;;;;;;2.38;2.00;;;;;;;5.62;100.00;94371.88;4980719;28;24440;-73
2022/09/29 06:46:49;;;;;;;3.47;1.80;;;;;;;5.70;100.00;94373.94;4973544;28;24430;-73
2022/09/29 06:49:16;;;;;;;3.25;2.13;;;;;;;5.79;100.00;94375.94;4975541;28;24433;-73
2022/09/29 06:51:43;;;;;;;2.20;1.73;;;;;;;5.83;100.00;94369.66;4979005;28;24976;-73
2022/09/29 06:54:10;;;;;;;3.97;2.00;;;;;;;5.91;100.00;94380.25;4973292;28;20782;-73
2022/09/29 06:56:37;;;;;;;2.47;1.63;;;;;;;6.19;100.00;94386.13;4972248;28;24438;-73
2022/09/29 06:59:03;;;;;;;1.95;1.75;;;;;;;6.13;100.00;94381.41;4968106;28;24444;-73
2022/09/29 07:01:30;;;;;;;2.25;1.70;;;;;;;6.15;100.00;94376.97;4978212;28;24466;-73
2022/09/29 07:03:59;;;;;;;1.63;1.52;;;;;;;6.04;100.00;94375.97;4967637;28;24432;-74
2022/09/29 07:06:27;;;;;;;3.58;1.60;;;;;;;5.94;100.00;94377.50;4971524;28;24484;-76
2022/09/29 07:08:54;;;;;;;2.70;2.10;;;;;;;5.80;100.00;94382.72;4963903;28;24443;-73
2022/09/29 07:11:21;;;;;;;3.42;1.70;;;;;;;5.89;100.00;94373.56;4963947;28;24441;-73
2022/09/29 07:13:47;;;;;;;3.22;2.10;;;;;;;5.84;100.00;94381.56;4965497;28;24438;-73
2022/09/29 07:16:14;;;;;;;3.58;2.33;;;;;;;5.64;100.00;94384.66;4962434;28;24426;-73
2022/09/29 07:18:42;;;;;;;3.57;2.47;;;;;;;5.57;100.00;94381.66;4987878;28;25027;-73
2022/09/29 07:21:15;;;;;;;3.25;2.42;;;;;;;5.67;100.00;94379.28;4972287;28;24465;-73
2022/09/29 07:23:42;;;;;;;3.20;2.35;;;;;;;5.71;100.00;94383.28;4966033;28;20860;-73
2022/09/29 07:26:08;;;;;;;3.08;2.47;;;;;;;5.80;100.00;94383.53;4961684;28;24449;-73
2022/09/29 07:28:36;;;;;;;2.47;2.23;;;;;;;5.94;100.00;94386.97;4961811;28;25031;-73
2022/09/29 07:31:04;;;;;;;3.33;2.45;;;;;;;6.08;100.00;94379.13;4981129;28;24525;-73
2022/09/29 07:33:31;;;;;;;2.65;2.38;;;;;;;6.15;100.00;94382.94;4963301;28;24436;-73
2022/09/29 07:35:59;;;;;;;2.47;2.28;;;;;;;6.25;100.00;94381.41;4970808;28;20780;-73
2022/09/29 07:38:27;;;;;;;3.10;2.40;;;;;;;6.36;100.00;94375.53;4963286;28;24805;-73
2022/09/29 07:40:54;;;;;;;3.35;2.50;;;;;;;6.33;100.00;94386.00;4983442;28;24461;-73
2022/09/29 07:43:20;;;;;;;3.72;2.80;;;;;;;6.45;100.00;94384.34;4976082;28;24434;-73
2022/09/29 07:45:51;;;;;;;3.78;2.25;;;;;;;6.51;100.00;94381.38;4970005;28;20768;-73
2022/09/29 07:48:18;;;;;;;3.53;2.00;;;;;;;6.61;100.00;94377.22;4977590;28;24444;-73
2022/09/29 07:50:45;;;;;;;2.10;1.80;;;;;;;6.66;100.00;94384.63;4984523;28;24520;-73
2022/09/29 07:53:13;;;;;;;4.03;2.30;;;;;;;6.57;100.00;94387.84;4967525;28;24440;-73
2022/09/29 07:55:41;;;;;;;2.72;1.90;;;;;;;6.68;100.00;94387.94;4983031;28;20814;-73
2022/09/29 07:58:07;;;;;;;3.03;2.30;;;;;;;6.77;100.00;94388.09;4980667;28;20829;-73
2022/09/29 08:00:34;;;;;;;2.72;1.98;;;;;;;6.81;100.00;94387.88;4965234;28;24461;-73
2022/09/29 08:03:02;;;;;;;2.95;1.80;;;;;;;6.71;100.00;94382.53;4971202;28;24425;-73
2022/09/29 08:05:32;;;;;;;4.82;2.20;;;;;;;6.69;100.00;94387.81;4978090;28;24971;-73
2022/09/29 08:07:59;;;;;;;4.40;2.28;;;;;;;6.83;100.00;94391.19;4970136;28;20780;-73
2022/09/29 08:10:26;;;;;;;3.38;2.22;;;;;;;6.87;100.00;94392.59;4964558;28;24490;-73
2022/09/29 08:12:55;;;;;;;3.00;2.08;;;;;;;6.76;100.00;94395.94;4970239;28;20862;-73
2022/09/29 08:15:21;;;;;;;8.65;2.45;;;;;;;6.81;100.00;94403.31;4963093;28;20785;-73
2022/09/29 08:17:48;;;;;;;3.50;1.85;;;;;;;6.98;100.00;94408.13;4956711;28;24445;-73
2022/09/29 08:20:15;;;;;;;4.53;2.00;;;;;;;7.14;100.00;94402.69;4984319;28;24465;-73
2022/09/29 08:22:41;;;;;;;3.67;2.60;;;;;;;7.10;100.00;94409.00;4980602;28;24433;-74
2022/09/29 08:25:08;;;;;;;3.80;3.17;;;;;;;7.15;100.00;94405.16;4978820;28;24488;-73
2022/09/29 08:27:34;;;;;;;3.80;2.83;;;;;;;7.21;100.00;94414.22;4968880;28;25006;-73
2022/09/29 08:30:02;;;;;;;4.13;3.38;;;;;;;7.24;100.00;94417.38;4976796;28;24441;-73
2022/09/29 08:32:29;;;;;;;8.82;5.00;;;;;;;7.33;100.00;94421.06;4975331;28;24436;-73
2022/09/29 08:34:55;;;;;;;11.35;2.65;;;;;;;7.23;100.00;94422.63;4972176;28;25213;-73
2022/09/29 08:37:22;;;;;;;5.22;2.85;;;;;;;7.28;100.00;94421.38;4983998;28;20867;-73
2022/09/29 08:39:49;;;;;;;3.42;2.13;;;;;;;7.43;100.00;94421.22;4977910;28;24441;-73
2022/09/29 08:42:26;;;;;;;4.55;2.50;;;;;;;7.36;100.00;94427.75;4973284;28;20781;-73
2022/09/29 08:44:59;;;;;;;4.97;2.47;;;;;;;7.45;100.00;94434.78;4964266;28;20756;-73
2022/09/29 08:47:29;;;;;;;4.20;2.10;;;;;;;7.58;100.00;94430.41;4969351;28;20752;-73
2022/09/29 08:50:01;;;;;;;3.13;2.25;;;;;;;7.75;100.00;94429.22;4984149;28;21050;-73
2022/09/29 08:52:31;;;;;;;3.65;2.30;;;;;;;7.81;100.00;94435.66;4959788;28;20783;-73
2022/09/29 08:55:05;;;;;;;5.47;2.30;;;;;;;8.17;100.00;94432.13;4967137;28;20789;-73
2022/09/29 08:57:34;;;;;;;3.20;2.42;;;;;;;8.63;100.00;94433.81;4969289;28;20689;-74
2022/09/29 09:00:01;;;;;;;4.40;2.60;;;;;;;9.04;100.00;94429.81;4986346;28;20783;-73
2022/09/29 09:02:44;;;;;;;4.30;1.98;;;;;;;9.40;100.00;94433.84;4977199;28;21351;-73
2022/09/29 09:05:34;;;;;;;4.78;1.92;;;;;;;9.56;100.00;94441.19;4980534;28;20759;-73
2022/09/29 09:08:05;;;;;;;7.68;2.40;;;;;;;9.56;100.00;94441.19;4962798;28;20748;-73
2022/09/29 09:10:43;;;;;;;3.33;2.07;;;;;;;9.66;100.00;94444.69;4962424;28;20725;-74
2022/09/29 09:13:28;;;;;;;7.72;2.50;;;;;;;9.67;100.00;94443.75;4977885;28;24895;-73
2022/09/29 09:16:05;;;;;;;5.53;2.00;;;;;;;9.69;100.00;94447.84;4982389;28;20652;-73
2022/09/29 09:18:59;;;;;;;2.85;1.92;;;;;;;9.56;100.00;94448.94;4984029;28;21282;-74
2022/09/29 09:21:34;;;;;;;3.97;1.95;;;;;;;9.47;100.00;94457.44;4974658;28;21224;-74
2022/09/29 09:24:05;;;;;;;3.83;2.78;;;;;;;9.41;100.00;94461.31;4977833;28;20860;-73
2022/09/29 09:26:37;;;;;;;3.22;1.90;;;;;;;9.53;100.00;94462.97;4974589;28;20809;-73
2022/09/29 09:29:10;;;;;;;7.00;2.00;;;;;;;9.57;100.00;94460.97;4985253;28;24435;-74
2022/09/29 09:31:41;;;;;;;5.30;2.40;;;;;;;9.46;100.00;94464.38;4979343;28;20835;-74
2022/09/29 09:34:16;;;;;;;3.97;2.50;;;;;;;9.42;100.00;94455.25;4992051;28;20671;-74
2022/09/29 09:36:47;;;;;;;5.20;2.30;;;;;;;9.54;100.00;94459.44;4980928;28;20647;-74
2022/09/29 09:39:19;;;;;;;3.88;2.35;;;;;;;9.48;100.00;94464.25;4974221;28;20743;-73
2022/09/29 09:41:49;;;;;;;3.78;2.10;;;;;;;9.58;100.00;94462.59;4965922;28;20827;-74
2022/09/29 09:44:19;;;;;;;2.00;1.60;;;;;;;9.72;100.00;94458.91;4982694;28;20820;-74
2022/09/29 09:46:49;;;;;;;5.78;1.50;;;;;;;9.87;100.00;94457.66;4970782;28;24788;-74
2022/09/29 09:49:24;;;;;;;1.73;1.00;;;;;;;9.88;100.00;94449.78;4980025;28;24445;-74
2022/09/29 09:51:58;;;;;;;5.30;1.23;;;;;;;9.77;100.00;94456.75;4974381;28;25001;-73
2022/09/29 09:54:30;;;;;;;3.10;1.30;;;;;;;9.98;100.00;94454.22;4979449;28;20736;-74
2022/09/29 09:57:26;;;;;;;3.03;1.37;;;;;;;9.90;100.00;94454.81;4957985;28;20759;-73
2022/09/29 10:00:07;;;;;;;2.67;1.40;;;;;;;10.00;100.00;94452.31;4980739;28;20802;-73
2022/09/29 10:02:33;;;;;;;2.75;1.15;;;;;;;10.10;100.00;94458.38;4973968;28;20815;-74
2022/09/29 10:05:01;;;;;;;2.88;1.10;;;;;;;10.28;100.00;94454.31;4965403;28;24434;-74
2022/09/29 10:07:30;;;;;;;2.97;1.00;;;;;;;10.37;100.00;94450.94;4973882;28;24452;-74
2022/09/29 10:10:02;;;;;;;2.40;1.07;;;;;;;10.47;100.00;94456.19;4977384;28;24447;-74
2022/09/29 10:12:29;;;;;;;6.13;1.30;;;;;;;10.44;100.00;94455.63;4972986;28;24435;-73
2022/09/29 10:15:01;;;;;;;1.70;1.02;;;;;;;10.44;100.00;94456.44;4981024;28;24440;-73
2022/09/29 10:17:33;;;;;;;2.63;1.00;;;;;;;10.51;100.00;94454.19;4980145;28;24434;-73
2022/09/29 10:20:04;;;;;;;3.05;1.65;;;;;;;10.46;100.00;94462.34;4981168;28;24437;-73
2022/09/29 10:22:31;;;;;;;3.60;1.42;;;;;;;10.34;100.00;94460.75;4975386;28;24824;-73
2022/09/29 10:25:15;;;;;;;3.20;1.98;;;;;;;10.59;100.00;94456.94;4972631;28;24441;-73
2022/09/29 10:27:44;;;;;;;2.60;1.02;;;;;;;10.66;100.00;94458.06;4967765;28;24947;-73
2022/09/29 10:30:19;;;;;;;2.33;1.40;;;;;;;10.75;100.00;94462.47;4986964;28;24495;-73
2022/09/29 10:32:46;;;;;;;2.27;1.40;;;;;;;10.64;100.00;94452.19;4972298;28;24582;-73
2022/09/29 10:35:24;;;;;;;4.57;1.80;;;;;;;10.79;100.00;94452.66;4980235;28;24433;-73
2022/09/29 10:38:01;;;;;;;12.02;3.08;;;;;;;10.61;100.00;94461.03;4975081;28;24437;-73
2022/09/29 10:40:28;;;;;;;3.25;1.15;;;;;;;10.50;100.00;94455.13;4960385;28;24501;-73
2022/09/29 10:42:56;;;;;;;5.05;1.30;;;;;;;10.35;100.00;94463.22;4981560;28;24992;-73
2022/09/29 10:45:25;;;;;;;2.33;1.25;;;;;;;10.48;100.00;94462.19;4982207;28;24436;-73
2022/09/29 10:48:09;;;;;;;2.23;1.03;;;;;;;10.63;100.00;94458.31;4969447;28;24537;-73
2022/09/29 10:50:49;;;;;;;2.08;1.20;;;;;;;10.56;100.00;94455.41;4986145;28;25061;-73
2022/09/29 10:53:23;;;;;;;4.95;1.77;;;;;;;10.70;100.00;94449.09;4971464;28;24429;-72
2022/09/29 10:55:52;;;;;;;6.50;1.40;;;;;;;10.82;100.00;94455.81;4978542;28;24429;-73
2022/09/29 10:58:24;;;;;;;3.60;1.20;;;;;;;10.89;100.00;94461.28;4973703;28;24430;-73
2022/09/29 11:01:06;;;;;;;1.92;0.93;;;;;;;11.00;100.00;94460.38;4977781;28;24461;-73
2022/09/29 11:03:35;;;;;;;2.50;0.93;;;;;;;11.65;100.00;94464.25;4969146;28;24444;-73
2022/09/29 11:06:06;;;;;;;2.07;1.00;;;;;;;11.49;100.00;94462.16;4978828;28;24482;-73
2022/09/29 11:08:33;;;;;;;2.50;0.80;;;;;;;11.32;98.87;94465.41;4973127;28;24437;-72
2022/09/29 11:11:06;;;;;;;1.05;0.70;;;;;;;11.25;96.26;94469.47;4979716;28;25003;-73
2022/09/29 11:13:37;;;;;;;2.50;1.10;;;;;;;11.24;96.32;94462.66;4977560;28;24437;-73
2022/09/29 11:16:12;;;;;;;3.42;1.10;;;;;;;11.16;95.44;94465.91;4983627;28;25018;-73
2022/09/29 11:18:39;;;;;;;1.50;0.70;;;;;;;11.03;94.76;94473.09;4974262;28;24448;-73
2022/09/29 11:21:28;;;;;;;1.42;0.63;;;;;;;11.04;93.20;94474.72;4981339;28;24461;-73
2022/09/29 11:24:02;;;;;;;1.17;0.55;;;;;;;11.03;93.16;94473.91;4974629;28;24437;-73
2022/09/29 11:26:33;;;;;;;2.40;0.80;;;;;;;11.21;93.15;94475.88;4967021;28;24458;-73
2022/09/29 11:29:23;;;;;;;2.70;0.98;;;;;;;11.88;94.21;94470.03;4974716;28;24436;-72
2022/09/29 11:32:03;;;;;;;2.38;0.80;;;;;;;12.07;98.69;94472.63;4969521;28;24430;-73
2022/09/29 11:34:52;;;;;;;2.58;1.02;;;;;;;12.11;94.22;94475.75;4976845;28;25065;-72
2022/09/29 11:37:37;;;;;;;1.70;1.00;;;;;;;11.89;91.84;94471.66;4963749;28;24799;-73
2022/09/29 11:40:11;;;;;;;1.77;0.77;;;;;;;11.79;92.07;94474.22;4976588;28;24433;-73
2022/09/29 11:42:55;;;;;;;4.00;1.13;;;;;;;11.77;96.03;94476.13;4974283;28;24445;-73
2022/09/29 11:45:30;;;;;;;2.75;0.75;;;;;;;11.99;93.46;94476.88;4968696;28;24438;-73
2022/09/29 11:48:18;;;;;;;1.88;0.90;;;;;;;12.01;95.69;94475.75;4976882;28;24440;-73